createdAt,value
2022-08-31T00:01:56.615Z,13.64
2022-08-31T00:05:07.894Z,13.56
2022-08-31T00:08:18.260Z,13.48
2022-08-31T00:11:30.815Z,13.46
2022-08-31T00:14:42.895Z,13.38
2022-08-31T00:17:56.184Z,13.36
2022-08-31T00:21:07.016Z,13.30
2022-08-31T00:24:17.521Z,13.24
2022-08-31T00:27:28.445Z,13.28
2022-08-31T00:30:40.237Z,13.27
2022-08-31T00:33:52.581Z,13.24
2022-08-31T00:37:04.704Z,13.16
2022-08-31T00:40:16.023Z,13.10
2022-08-31T00:43:41.052Z,13.12
2022-08-31T00:46:52.718Z,13.06
2022-08-31T00:50:05.462Z,13.03
2022-08-31T00:53:15.737Z,13.01
2022-08-31T00:56:26.870Z,13.01
2022-08-31T00:59:38.988Z,12.97
2022-08-31T01:02:51.798Z,12.94
2022-08-31T01:06:03.107Z,12.95
2022-08-31T01:09:14.289Z,12.93
2022-08-31T01:12:25.415Z,12.89
2022-08-31T01:15:38.042Z,12.90
2022-08-31T01:18:52.949Z,12.90
2022-08-31T01:22:11.649Z,12.88
2022-08-31T01:25:23.751Z,12.92
2022-08-31T01:28:43.950Z,12.92
2022-08-31T01:31:54.010Z,12.91
2022-08-31T01:35:05.148Z,12.89
2022-08-31T01:38:16.015Z,12.87
2022-08-31T01:41:28.045Z,12.84
2022-08-31T01:44:38.205Z,12.84
2022-08-31T01:47:48.427Z,12.82
2022-08-31T01:50:59.087Z,12.82
2022-08-31T01:54:10.627Z,12.78
2022-08-31T01:57:33.309Z,12.79
2022-08-31T02:00:45.248Z,12.78
2022-08-31T02:03:57.245Z,12.81
2022-08-31T02:07:08.086Z,12.78
2022-08-31T02:10:18.827Z,12.74
2022-08-31T02:13:30.650Z,12.69
2022-08-31T02:16:41.527Z,12.68
2022-08-31T02:19:51.841Z,12.67
2022-08-31T02:23:03.496Z,12.64
2022-08-31T02:26:14.259Z,12.61
2022-08-31T02:29:26.052Z,12.58
2022-08-31T02:32:36.495Z,12.59
2022-08-31T02:35:50.246Z,12.54
2022-08-31T02:39:02.292Z,12.50
2022-08-31T02:42:12.420Z,12.47
2022-08-31T02:45:24.583Z,12.44
2022-08-31T02:48:35.930Z,12.40
2022-08-31T02:51:46.298Z,12.34
2022-08-31T02:54:56.396Z,12.30
2022-08-31T02:58:07.491Z,12.24
2022-08-31T03:01:19.351Z,12.20
2022-08-31T03:04:30.407Z,12.20
2022-08-31T03:07:41.142Z,12.20
2022-08-31T03:10:51.745Z,12.22
2022-08-31T03:14:02.259Z,12.23
2022-08-31T03:17:13.817Z,12.28
2022-08-31T03:20:26.529Z,12.27
2022-08-31T03:23:36.589Z,12.30
2022-08-31T03:26:47.242Z,12.28
2022-08-31T03:29:58.296Z,12.31
2022-08-31T03:33:10.543Z,12.32
2022-08-31T03:36:20.837Z,12.29
2022-08-31T03:39:30.969Z,12.27
2022-08-31T03:42:42.148Z,12.24
2022-08-31T03:45:53.111Z,12.24
2022-08-31T03:49:07.606Z,12.24
2022-08-31T03:52:18.038Z,12.22
2022-08-31T03:55:29.270Z,12.20
2022-08-31T03:58:39.993Z,12.21
2022-08-31T04:01:49.973Z,12.18
2022-08-31T04:05:01.410Z,12.16
2022-08-31T04:08:12.164Z,12.17
2022-08-31T04:11:29.962Z,12.20
2022-08-31T04:14:55.383Z,12.17
2022-08-31T04:18:06.361Z,12.15
2022-08-31T04:21:21.188Z,12.11
2022-08-31T04:24:31.478Z,12.12
2022-08-31T04:27:42.501Z,12.12
2022-08-31T04:30:53.251Z,12.12
2022-08-31T04:34:04.646Z,12.05
2022-08-31T04:37:16.686Z,12.03
2022-08-31T04:40:27.180Z,12.05
2022-08-31T04:43:38.967Z,12.04
2022-08-31T04:46:49.692Z,12.04
2022-08-31T04:49:59.801Z,12.06
2022-08-31T04:53:11.358Z,12.11
2022-08-31T04:56:25.259Z,12.13
2022-08-31T04:59:37.736Z,12.12
2022-08-31T05:02:51.790Z,12.14
2022-08-31T05:06:03.288Z,12.17
2022-08-31T05:09:17.673Z,12.17
2022-08-31T05:12:28.029Z,12.23
2022-08-31T05:15:42.047Z,12.27
2022-08-31T05:18:53.050Z,12.34
2022-08-31T05:22:03.405Z,12.42
2022-08-31T05:25:15.308Z,12.50
2022-08-31T05:28:25.765Z,12.55
2022-08-31T05:31:37.438Z,12.63
2022-08-31T05:34:47.839Z,12.71
2022-08-31T05:37:57.966Z,12.82
2022-08-31T05:41:11.065Z,12.85
2022-08-31T05:44:23.455Z,12.97
2022-08-31T05:47:39.264Z,13.09
2022-08-31T05:50:49.997Z,13.25
2022-08-31T05:54:03.642Z,13.36
2022-08-31T05:57:15.733Z,13.50
2022-08-31T06:00:26.605Z,13.63
2022-08-31T06:03:37.273Z,13.72
2022-08-31T06:06:48.233Z,13.83
2022-08-31T06:09:59.010Z,13.99
2022-08-31T06:13:11.653Z,14.12
2022-08-31T06:16:23.050Z,14.27
2022-08-31T06:19:33.788Z,14.42
2022-08-31T06:22:46.454Z,14.52
2022-08-31T06:26:03.956Z,14.72
2022-08-31T06:29:15.749Z,14.89
2022-08-31T06:32:26.201Z,15.14
2022-08-31T06:35:40.186Z,15.27
2022-08-31T06:38:50.733Z,15.38
2022-08-31T06:42:00.972Z,15.59
2022-08-31T06:45:13.578Z,15.80
2022-08-31T06:48:24.067Z,16.17
2022-08-31T06:51:36.739Z,16.71
2022-08-31T06:54:47.063Z,16.75
2022-08-31T06:57:57.520Z,16.67
2022-08-31T07:01:11.273Z,16.65
2022-08-31T07:04:21.646Z,16.75
2022-08-31T07:07:32.775Z,16.72
2022-08-31T07:10:43.156Z,16.94
2022-08-31T07:13:55.081Z,17.01
2022-08-31T07:17:08.217Z,17.25
2022-08-31T07:20:18.599Z,17.30
2022-08-31T07:23:29.018Z,17.40
2022-08-31T07:26:42.417Z,17.61
2022-08-31T07:29:52.734Z,17.80
2022-08-31T07:33:07.187Z,17.86
2022-08-31T07:36:18.436Z,18.05
2022-08-31T07:39:47.024Z,18.19
2022-08-31T07:42:56.994Z,18.50
2022-08-31T07:46:07.783Z,18.68
2022-08-31T07:49:20.206Z,18.78
2022-08-31T07:52:32.444Z,19.16
2022-08-31T07:55:45.740Z,19.83
2022-08-31T07:58:56.233Z,20.05
2022-08-31T08:02:08.465Z,20.32
2022-08-31T08:05:26.999Z,20.07
2022-08-31T08:08:38.322Z,19.83
2022-08-31T08:11:52.507Z,19.56
2022-08-31T08:15:05.238Z,19.72
2022-08-31T08:18:15.560Z,21.47
2022-08-31T08:21:27.993Z,21.14
2022-08-31T08:24:40.019Z,20.38
2022-08-31T08:27:54.343Z,20.00
2022-08-31T08:31:05.811Z,19.97
2022-08-31T08:34:16.109Z,19.83
2022-08-31T08:37:54.334Z,19.83
2022-08-31T08:40:59.345Z,19.97
2022-08-31T08:44:16.787Z,20.10
2022-08-31T08:47:38.408Z,20.23
2022-08-31T08:50:49.175Z,20.22
2022-08-31T08:54:05.909Z,20.23
2022-08-31T08:57:20.154Z,20.36
2022-08-31T09:00:30.311Z,20.41
2022-08-31T09:03:55.092Z,20.65
2022-08-31T09:07:22.953Z,20.79
2022-08-31T09:10:43.068Z,20.89
2022-08-31T09:14:08.208Z,20.92
2022-08-31T09:17:35.441Z,20.90
2022-08-31T09:21:02.427Z,21.01
2022-08-31T09:24:19.322Z,20.96
2022-08-31T09:27:46.794Z,21.04
2022-08-31T09:30:57.591Z,20.95
2022-08-31T09:34:14.278Z,20.94
2022-08-31T09:37:26.824Z,21.14
2022-08-31T09:40:40.957Z,21.05
2022-08-31T09:43:52.689Z,21.09
2022-08-31T09:47:06.514Z,20.88
2022-08-31T09:50:29.650Z,20.83
2022-08-31T09:54:02.989Z,20.82
2022-08-31T09:57:13.936Z,20.99
2022-08-31T10:00:34.427Z,21.09
2022-08-31T10:03:45.640Z,21.10
2022-08-31T10:07:07.951Z,21.09
2022-08-31T10:10:29.962Z,21.14
2022-08-31T10:13:46.778Z,21.26
2022-08-31T10:17:04.111Z,21.46
2022-08-31T10:20:21.135Z,21.34
2022-08-31T10:23:36.957Z,21.55
2022-08-31T10:26:51.063Z,21.75
2022-08-31T10:30:07.778Z,21.70
2022-08-31T10:33:23.790Z,21.67
2022-08-31T10:36:39.902Z,21.85
2022-08-31T10:39:55.272Z,21.83
2022-08-31T10:43:14.049Z,21.66
2022-08-31T10:46:24.622Z,21.82
2022-08-31T10:49:39.222Z,21.95
2022-08-31T10:53:01.895Z,22.16
2022-08-31T10:56:18.710Z,22.34
2022-08-31T10:59:36.881Z,22.21
2022-08-31T11:03:00.472Z,22.10
2022-08-31T11:06:21.788Z,22.01
2022-08-31T11:09:39.484Z,21.67
2022-08-31T11:12:57.593Z,21.69
2022-08-31T11:16:30.927Z,21.69
2022-08-31T11:20:12.516Z,21.84
2022-08-31T11:23:45.142Z,22.25
2022-08-31T11:27:00.628Z,22.53
2022-08-31T11:30:24.370Z,22.49
2022-08-31T11:33:36.236Z,22.51
2022-08-31T11:36:52.286Z,22.64
2022-08-31T11:40:11.601Z,22.32
2022-08-31T11:43:53.794Z,22.14
2022-08-31T11:47:07.886Z,22.08
2022-08-31T11:50:50.659Z,22.10
2022-08-31T11:54:01.984Z,22.25
2022-08-31T11:57:18.396Z,22.39
2022-08-31T12:00:44.015Z,22.60
2022-08-31T12:04:03.319Z,22.46
2022-08-31T12:07:16.950Z,22.32
2022-08-31T12:10:34.852Z,22.39
2022-08-31T12:13:54.318Z,22.41
2022-08-31T12:17:13.186Z,22.54
2022-08-31T12:20:31.387Z,22.56
2022-08-31T12:23:52.311Z,22.84
2022-08-31T12:27:24.842Z,22.95
2022-08-31T12:30:36.742Z,23.09
2022-08-31T12:33:58.938Z,22.86
2022-08-31T12:37:31.761Z,22.57
2022-08-31T12:40:45.348Z,22.20
2022-08-31T12:43:55.600Z,22.03
2022-08-31T12:47:20.135Z,21.85
2022-08-31T12:50:40.042Z,21.67
2022-08-31T12:54:09.176Z,21.66
2022-08-31T12:57:41.762Z,21.77
2022-08-31T13:00:52.211Z,21.91
2022-08-31T13:04:04.838Z,21.94
2022-08-31T13:07:20.151Z,21.88
2022-08-31T13:10:33.979Z,22.12
2022-08-31T13:13:44.530Z,22.22
2022-08-31T13:16:59.395Z,22.42
2022-08-31T13:20:18.702Z,22.49
2022-08-31T13:23:31.745Z,22.24
2022-08-31T13:26:43.796Z,22.27
2022-08-31T13:29:56.570Z,22.45
2022-08-31T13:33:25.075Z,22.46
2022-08-31T13:36:41.464Z,22.42
2022-08-31T13:39:52.945Z,22.50
2022-08-31T13:43:03.278Z,22.43
2022-08-31T13:46:13.680Z,22.55
2022-08-31T13:49:32.267Z,22.41
2022-08-31T13:53:09.669Z,22.27
2022-08-31T13:56:52.804Z,22.32
2022-08-31T14:00:38.118Z,22.51
2022-08-31T14:03:58.202Z,22.75
2022-08-31T14:07:08.384Z,22.89
2022-08-31T14:10:25.738Z,22.92
2022-08-31T14:13:36.141Z,22.91
2022-08-31T14:16:51.849Z,22.97
2022-08-31T14:20:29.252Z,23.04
2022-08-31T14:23:40.958Z,22.93
2022-08-31T14:26:52.353Z,22.76
2022-08-31T14:30:03.283Z,22.69
2022-08-31T14:33:16.818Z,22.56
2022-08-31T14:36:27.889Z,22.52
2022-08-31T14:39:41.847Z,22.31
2022-08-31T14:42:53.881Z,22.29
2022-08-31T14:46:04.117Z,22.37
2022-08-31T14:49:16.121Z,22.34
2022-08-31T14:52:26.857Z,22.22
2022-08-31T14:55:40.373Z,22.17
2022-08-31T14:58:52.755Z,22.11
2022-08-31T15:02:03.353Z,22.22
2022-08-31T15:05:14.783Z,22.56
2022-08-31T15:08:37.725Z,22.60
2022-08-31T15:11:50.907Z,22.73
2022-08-31T15:15:02.605Z,22.78
2022-08-31T15:18:14.512Z,22.72
2022-08-31T15:21:29.127Z,22.68
2022-08-31T15:24:45.051Z,22.72
2022-08-31T15:27:56.712Z,22.78
2022-08-31T15:31:11.321Z,22.77
2022-08-31T15:34:24.636Z,22.67
2022-08-31T15:37:35.044Z,22.68
2022-08-31T15:40:45.355Z,22.59
2022-08-31T15:43:55.312Z,22.53
2022-08-31T15:47:25.981Z,22.46
2022-08-31T15:50:36.586Z,22.38
2022-08-31T15:54:01.028Z,22.27
2022-08-31T15:57:22.974Z,22.26
2022-08-31T16:00:33.919Z,22.13
2022-08-31T16:03:50.928Z,22.18
2022-08-31T16:07:02.024Z,22.12
2022-08-31T16:10:16.699Z,22.04
2022-08-31T16:13:29.969Z,21.92
2022-08-31T16:16:42.590Z,21.83
2022-08-31T16:19:54.442Z,21.76
2022-08-31T16:23:07.657Z,21.60
2022-08-31T16:26:21.548Z,21.56
2022-08-31T16:29:31.999Z,21.50
2022-08-31T16:32:42.151Z,21.57
2022-08-31T16:35:53.573Z,21.42
2022-08-31T16:39:04.672Z,21.32
2022-08-31T16:42:15.703Z,21.25
2022-08-31T16:45:26.421Z,21.35
2022-08-31T16:48:54.659Z,21.28
2022-08-31T16:52:11.109Z,21.28
2022-08-31T16:55:21.966Z,21.26
2022-08-31T16:58:51.233Z,21.18
2022-08-31T17:02:02.252Z,21.18
2022-08-31T17:05:13.017Z,21.17
2022-08-31T17:08:24.537Z,21.08
2022-08-31T17:11:38.404Z,21.12
2022-08-31T17:14:52.168Z,21.12
2022-08-31T17:18:03.078Z,21.17
2022-08-31T17:21:17.325Z,21.06
2022-08-31T17:24:32.114Z,21.07
2022-08-31T17:27:42.422Z,21.02
2022-08-31T17:30:57.822Z,20.96
2022-08-31T17:34:08.565Z,20.95
2022-08-31T17:37:21.020Z,20.93
2022-08-31T17:40:32.880Z,20.83
2022-08-31T17:43:43.782Z,20.72
2022-08-31T17:46:54.484Z,20.68
2022-08-31T17:50:07.100Z,20.62
2022-08-31T17:53:17.324Z,20.40
2022-08-31T17:56:34.251Z,20.38
2022-08-31T17:59:48.716Z,20.24
2022-08-31T18:02:58.694Z,20.20
2022-08-31T18:06:09.027Z,20.04
2022-08-31T18:09:21.374Z,19.91
2022-08-31T18:12:34.775Z,19.86
2022-08-31T18:15:45.014Z,19.67
2022-08-31T18:18:55.484Z,19.57
2022-08-31T18:22:06.668Z,19.52
2022-08-31T18:25:16.931Z,19.47
2022-08-31T18:28:28.452Z,19.37
2022-08-31T18:31:40.994Z,19.31
2022-08-31T18:34:57.112Z,19.26
2022-08-31T18:38:10.361Z,19.19
2022-08-31T18:41:39.490Z,19.11
2022-08-31T18:45:09.077Z,19.00
2022-08-31T18:48:27.167Z,18.98
2022-08-31T18:51:38.299Z,18.86
2022-08-31T18:54:49.935Z,18.80
2022-08-31T18:58:00.473Z,18.74
2022-08-31T19:01:15.501Z,18.65
2022-08-31T19:04:26.092Z,18.59
2022-08-31T19:07:36.560Z,18.56
2022-08-31T19:10:49.113Z,18.49
2022-08-31T19:14:01.414Z,18.39
2022-08-31T19:17:13.034Z,18.39
2022-08-31T19:20:23.130Z,18.35
2022-08-31T19:23:36.216Z,18.27
2022-08-31T19:26:49.616Z,18.26
2022-08-31T19:29:59.830Z,18.24
2022-08-31T19:33:12.322Z,18.18
2022-08-31T19:36:22.786Z,18.12
2022-08-31T19:39:37.408Z,18.06
2022-08-31T19:46:21.221Z,17.94
2022-08-31T19:49:32.986Z,17.95
2022-08-31T19:52:43.951Z,17.88
2022-08-31T19:55:57.431Z,17.81
2022-08-31T19:59:08.126Z,17.74
2022-08-31T20:02:18.747Z,17.66
2022-08-31T20:05:31.464Z,17.62
2022-08-31T20:08:43.322Z,17.56
2022-08-31T20:11:55.409Z,17.50
2022-08-31T20:15:06.396Z,17.46
2022-08-31T20:18:20.612Z,17.45
2022-08-31T20:21:34.630Z,17.35
2022-08-31T20:24:45.490Z,17.31
2022-08-31T20:27:57.558Z,17.25
2022-08-31T20:31:10.993Z,17.20
2022-08-31T20:34:23.422Z,17.15
2022-08-31T20:37:35.425Z,17.09
2022-08-31T20:40:48.299Z,17.04
2022-08-31T20:44:00.843Z,17.01
2022-08-31T20:47:38.002Z,16.97
2022-08-31T20:50:49.868Z,16.92
2022-08-31T20:54:01.956Z,16.88
2022-08-31T20:57:14.591Z,16.87
2022-08-31T21:00:25.205Z,16.82
2022-08-31T21:03:35.809Z,16.77
2022-08-31T21:06:46.641Z,16.74
2022-08-31T21:09:58.684Z,16.74
2022-08-31T21:13:11.112Z,16.71
2022-08-31T21:16:21.812Z,16.68
2022-08-31T21:19:32.130Z,16.69
2022-08-31T21:22:42.135Z,16.68
2022-08-31T21:25:55.108Z,16.63
2022-08-31T21:29:05.328Z,16.61
2022-08-31T21:32:16.088Z,16.57
2022-08-31T21:35:26.581Z,16.52
2022-08-31T21:38:38.758Z,16.46
2022-08-31T21:41:50.712Z,16.41
2022-08-31T21:45:00.596Z,16.31
2022-08-31T21:48:17.773Z,16.20
2022-08-31T21:51:41.240Z,16.11
2022-08-31T21:54:51.783Z,16.06
2022-08-31T21:58:03.340Z,16.03
2022-08-31T22:01:18.344Z,15.97
2022-08-31T22:04:31.622Z,15.92
2022-08-31T22:07:42.295Z,15.85
2022-08-31T22:10:52.712Z,15.82
2022-08-31T22:14:07.659Z,15.75
2022-08-31T22:17:18.117Z,15.78
2022-08-31T22:20:28.577Z,15.78
2022-08-31T22:23:38.936Z,15.83
2022-08-31T22:26:50.742Z,15.82
2022-08-31T22:30:04.673Z,15.80
2022-08-31T22:33:15.102Z,15.81
2022-08-31T22:36:32.411Z,15.79
2022-08-31T22:39:43.693Z,15.79
2022-08-31T22:42:55.341Z,15.79
2022-08-31T22:46:10.901Z,15.76
2022-08-31T22:49:21.801Z,15.73
2022-08-31T22:52:33.410Z,15.77
2022-08-31T22:55:44.095Z,15.74
2022-08-31T22:58:55.981Z,15.67
2022-08-31T23:02:07.538Z,15.66
2022-08-31T23:05:20.545Z,15.63
2022-08-31T23:08:30.817Z,15.62
2022-08-31T23:11:41.258Z,15.59
2022-08-31T23:14:51.870Z,15.56
2022-08-31T23:18:03.378Z,15.46
2022-08-31T23:21:13.573Z,15.48
2022-08-31T23:24:28.574Z,15.50
2022-08-31T23:27:38.751Z,15.48
2022-08-31T23:30:50.065Z,15.45
2022-08-31T23:34:01.866Z,15.43
2022-08-31T23:37:12.525Z,15.42
2022-08-31T23:40:22.904Z,15.43
2022-08-31T23:43:33.015Z,15.34
2022-08-31T23:46:44.276Z,15.29
2022-08-31T23:49:57.784Z,15.25
2022-08-31T23:53:14.569Z,15.20
2022-08-31T23:56:32.173Z,15.18
2022-08-31T23:59:42.909Z,15.12
